Time;durP1;ratioP1;P1;durP2;ratioP2;P2;SDS_P1;SDS_P2;PMS_P1;PMS_P2;Temp;Humidity;BMP_temperature;BMP_pressure;BME280_temperature;BME280_humidity;BME280_pressure;Samples;Min_cycle;Max_cycle;Signal;HPM_P1;HPM_P2
2024/03/25 00:01:29;;;;;;;;;6.00;5.25;;;;;8.58;100.00;97392.56;6100230;28;96371;-53
2024/03/25 00:04:32;;;;;;;;;8.00;7.60;;;;;8.54;100.00;97397.63;6100151;28;96564;-54
2024/03/25 00:07:34;;;;;;;;;6.60;5.60;;;;;8.46;100.00;97399.88;6068401;28;98476;-52
2024/03/25 00:10:37;;;;;;;;;8.00;6.00;;;;;8.37;100.00;97402.16;6099766;28;98627;-53
2024/03/25 00:13:38;;;;;;;;;8.00;8.00;;;;;8.30;100.00;97400.69;6108998;28;97115;-53
2024/03/25 00:16:41;;;;;;;;;8.00;7.00;;;;;8.29;100.00;97397.16;6124026;28;96298;-53
2024/03/25 00:19:50;;;;;;;;;7.40;6.00;;;;;8.23;100.00;97398.13;6124153;28;96384;-53
2024/03/25 00:22:52;;;;;;;;;8.60;7.60;;;;;8.22;100.00;97394.63;6124816;28;96384;-52
2024/03/25 00:25:54;;;;;;;;;6.00;5.00;;;;;8.21;100.00;97403.72;6107992;28;96366;-53
2024/03/25 00:28:56;;;;;;;;;5.60;5.00;;;;;8.20;100.00;97388.72;6109796;28;97489;-53
2024/03/25 00:31:58;;;;;;;;;6.00;5.60;;;;;8.19;100.00;97384.38;6128741;28;96329;-53
2024/03/25 00:35:02;;;;;;;;;5.00;4.00;;;;;8.20;100.00;97391.41;6134019;28;96302;-53
2024/03/25 00:38:04;;;;;;;;;7.00;6.75;;;;;8.13;100.00;97381.84;6134540;28;96411;-53
2024/03/25 00:41:06;;;;;;;;;5.00;5.00;;;;;8.16;100.00;97400.19;6133918;28;96355;-53
2024/03/25 00:44:07;;;;;;;;;5.60;5.00;;;;;8.14;100.00;97391.53;6135079;28;96284;-52
2024/03/25 00:47:10;;;;;;;;;4.50;4.50;;;;;8.12;100.00;97394.44;6134201;28;96391;-53
2024/03/25 00:50:14;;;;;;;;;6.00;5.40;;;;;8.12;100.00;97386.41;6113723;28;96381;-53
2024/03/25 00:53:18;;;;;;;;;5.20;5.20;;;;;8.10;100.00;97395.78;6112437;28;96369;-55
2024/03/25 00:56:19;;;;;;;;;6.80;5.80;;;;;8.12;100.00;97390.97;6123368;28;96680;-54
2024/03/25 00:59:21;;;;;;;;;6.00;6.00;;;;;8.11;100.00;97387.44;6123825;28;96237;-55
2024/03/25 01:02:22;;;;;;;;;6.00;6.00;;;;;8.11;100.00;97381.31;6129778;28;96772;-55
2024/03/25 01:05:26;;;;;;;;;6.20;6.20;;;;;8.09;100.00;97383.41;6155354;28;96231;-55
2024/03/25 01:08:27;;;;;;;;;6.40;5.00;;;;;8.07;100.00;97380.13;6139329;28;98445;-54
2024/03/25 01:11:29;;;;;;;;;4.00;4.00;;;;;8.08;100.00;97387.94;6156925;28;97034;-55
2024/03/25 01:14:31;;;;;;;;;6.60;6.00;;;;;8.08;100.00;97379.09;6139538;28;96428;-55
2024/03/25 01:17:33;;;;;;;;;5.75;3.75;;;;;8.11;100.00;97381.31;6124202;28;96352;-54
2024/03/25 01:20:35;;;;;;;;;4.25;4.25;;;;;8.10;100.00;97371.63;6156799;28;96343;-54
2024/03/25 01:23:37;;;;;;;;;5.00;5.00;;;;;8.19;100.00;97378.19;6139664;28;98988;-55
2024/03/25 01:26:39;;;;;;;;;5.60;4.00;;;;;8.18;100.00;97373.88;6155971;28;96300;-55
2024/03/25 01:29:41;;;;;;;;;3.00;3.00;;;;;8.21;100.00;97376.06;6154729;28;96308;-55
2024/03/25 01:32:43;;;;;;;;;4.60;4.00;;;;;8.21;100.00;97381.44;6154861;28;96258;-55
2024/03/25 01:35:47;;;;;;;;;4.00;4.00;;;;;8.27;100.00;97375.09;6138609;28;96400;-55
2024/03/25 01:38:48;;;;;;;;;6.25;6.00;;;;;8.09;100.00;97346.63;6127822;28;96307;-55
2024/03/25 01:41:50;;;;;;;;;4.00;4.00;;;;;8.30;100.00;97380.03;6134354;28;96302;-55
2024/03/25 01:44:52;;;;;;;;;5.00;5.00;;;;;8.35;100.00;97376.63;6135252;28;96845;-55
2024/03/25 01:47:55;;;;;;;;;5.00;4.00;;;;;8.36;100.00;97372.84;6128877;28;96304;-55
2024/03/25 01:50:58;;;;;;;;;5.25;5.25;;;;;8.32;100.00;97380.59;6111427;28;96506;-55
2024/03/25 01:54:01;;;;;;;;;4.00;3.00;;;;;8.38;100.00;97370.75;6111145;28;96924;-55
2024/03/25 01:57:04;;;;;;;;;4.00;4.00;;;;;8.43;100.00;97370.84;6124147;28;98771;-55
2024/03/25 02:00:08;;;;;;;;;5.00;5.00;;;;;8.41;100.00;97367.56;6134561;28;96836;-55
2024/03/25 02:03:11;;;;;;;;;4.40;3.40;;;;;8.38;100.00;97368.06;6160474;23;96868;-56
2024/03/25 02:06:18;;;;;;;;;3.60;3.60;;;;;8.42;100.00;97375.38;6153563;28;96313;-56
2024/03/25 02:09:20;;;;;;;;;3.00;3.00;;;;;8.40;100.00;97371.34;6152630;28;96914;-57
2024/03/25 02:12:22;;;;;;;;;2.00;2.00;;;;;8.29;100.00;97375.69;6153578;28;96338;-58
2024/03/25 02:15:26;;;;;;;;;5.00;5.00;;;;;8.33;100.00;97367.97;6152953;28;97722;-57
2024/03/25 02:18:27;;;;;;;;;4.00;3.20;;;;;8.23;100.00;97363.22;6152815;28;96273;-58
2024/03/25 02:21:31;;;;;;;;;4.00;4.00;;;;;8.26;100.00;97374.28;6120906;28;96816;-58
2024/03/25 02:24:34;;;;;;;;;3.00;2.80;;;;;8.26;100.00;97362.72;6111668;28;96232;-57
2024/03/25 02:27:39;;;;;;;;;4.20;4.00;;;;;8.31;100.00;97368.22;6095272;28;98903;-57
2024/03/25 02:30:40;;;;;;;;;3.00;3.00;;;;;8.31;100.00;97378.16;6111556;28;96299;-58
2024/03/25 02:33:42;;;;;;;;;3.00;3.00;;;;;8.35;100.00;97369.38;6111339;28;98947;-58
2024/03/25 02:36:44;;;;;;;;;4.00;4.00;;;;;8.32;100.00;97367.16;6128527;28;96344;-57
2024/03/25 02:39:46;;;;;;;;;5.00;3.00;;;;;8.35;100.00;97365.88;6110710;28;98824;-57
2024/03/25 02:42:49;;;;;;;;;4.00;4.00;;;;;8.33;100.00;97346.50;6111621;28;96489;-57
2024/03/25 02:45:51;;;;;;;;;3.00;3.00;;;;;8.45;100.00;97363.34;6109962;28;99357;-56
2024/03/25 02:48:52;;;;;;;;;4.00;4.00;;;;;8.49;100.00;97359.94;6099634;28;96338;-56
2024/03/25 02:51:54;;;;;;;;;5.00;4.00;;;;;8.53;100.00;97368.31;6120393;28;96403;-57
2024/03/25 02:54:56;;;;;;;;;4.40;4.40;;;;;8.52;100.00;97345.19;6111165;28;99091;-58
2024/03/25 02:57:59;;;;;;;;;5.00;5.00;;;;;8.61;100.00;97357.94;6127286;28;96367;-57
2024/03/25 03:01:00;;;;;;;;;4.40;3.40;;;;;8.66;100.00;97357.22;6127293;28;96879;-57
2024/03/25 03:04:03;;;;;;;;;4.00;4.00;;;;;8.67;100.00;97359.66;6126883;28;96388;-57
2024/03/25 03:07:05;;;;;;;;;6.00;4.40;;;;;8.66;100.00;97349.97;6111159;28;96571;-57
2024/03/25 03:10:08;;;;;;;;;6.50;5.00;;;;;8.60;100.00;97342.88;6127406;28;96347;-56
2024/03/25 03:13:10;;;;;;;;;5.00;5.00;;;;;8.71;100.00;97357.28;6096989;28;96299;-57
2024/03/25 03:16:12;;;;;;;;;5.00;4.60;;;;;8.68;100.00;97360.47;6080553;28;96297;-57
2024/03/25 03:19:14;;;;;;;;;7.00;6.00;;;;;8.62;100.00;97362.28;6076157;28;96489;-57
2024/03/25 03:22:16;;;;;;;;;6.40;6.40;;;;;8.54;100.00;97369.94;6075206;28;96666;-56
2024/03/25 03:25:17;;;;;;;;;5.00;5.00;;;;;8.49;100.00;97373.38;6074818;28;96514;-56
2024/03/25 03:28:21;;;;;;;;;4.60;4.60;;;;;8.39;100.00;97367.84;6075287;28;96274;-56
2024/03/25 03:31:22;;;;;;;;;5.50;5.50;;;;;8.36;100.00;97375.53;6059793;28;98620;-56
2024/03/25 03:34:24;;;;;;;;;5.00;5.00;;;;;8.32;100.00;97383.28;6080046;28;98929;-57
2024/03/25 03:37:27;;;;;;;;;6.00;5.20;;;;;8.28;100.00;97384.78;6084342;28;97598;-57
2024/03/25 03:40:29;;;;;;;;;3.00;3.00;;;;;8.26;100.00;97382.34;6095522;28;96404;-57
2024/03/25 03:43:32;;;;;;;;;3.50;3.50;;;;;8.22;100.00;97386.56;6072508;28;96720;-57
2024/03/25 03:46:33;;;;;;;;;3.80;3.00;;;;;8.23;100.00;97384.72;6096032;28;97230;-57
2024/03/25 03:49:36;;;;;;;;;3.00;3.00;;;;;8.24;100.00;97383.66;6099001;28;96335;-57
2024/03/25 03:52:37;;;;;;;;;3.00;3.00;;;;;8.24;100.00;97387.16;6081962;28;98393;-57
2024/03/25 03:55:39;;;;;;;;;4.00;3.00;;;;;8.23;100.00;97390.91;6098771;28;96554;-57
2024/03/25 03:58:43;;;;;;;;;4.00;3.50;;;;;8.24;100.00;97397.91;6083113;28;96311;-57
2024/03/25 04:01:44;;;;;;;;;3.80;3.80;;;;;8.22;100.00;97391.13;6075687;28;96415;-56
2024/03/25 04:04:46;;;;;;;;;4.00;4.00;;;;;8.24;100.00;97389.84;6074322;28;96423;-56
2024/03/25 04:07:47;;;;;;;;;4.00;4.00;;;;;8.20;100.00;97390.56;6067008;28;97037;-57
2024/03/25 04:10:49;;;;;;;;;4.60;3.60;;;;;8.13;100.00;97387.22;6100365;28;96468;-56
2024/03/25 04:13:52;;;;;;;;;4.00;4.00;;;;;8.08;100.00;97381.75;6121916;28;96264;-56
2024/03/25 04:16:55;;;;;;;;;4.50;3.50;;;;;8.09;100.00;97386.09;6122731;28;96525;-57
2024/03/25 04:20:00;;;;;;;;;5.00;5.00;;;;;8.09;100.00;97383.41;6122367;28;96273;-56
2024/03/25 04:23:02;;;;;;;;;4.25;4.00;;;;;8.09;100.00;97378.84;6112341;28;96424;-53
2024/03/25 04:26:06;;;;;;;;;3.25;3.25;;;;;8.07;100.00;97385.50;6108351;28;96600;-53
2024/03/25 04:29:09;;;;;;;;;4.00;3.00;;;;;8.03;100.00;97376.31;6105535;28;96232;-53
2024/03/25 04:32:11;;;;;;;;;3.25;3.25;;;;;8.01;100.00;97381.94;6089201;28;96440;-53
2024/03/25 04:35:13;;;;;;;;;4.25;4.25;;;;;7.82;100.00;97356.34;6106139;28;96311;-53
